TimeCST,TemperatureF,Dew PointF,Humidity,Sea Level PressureIn,VisibilityMPH,Wind Direction,Wind SpeedMPH,Gust SpeedMPH,PrecipitationIn,Events,Conditions,WindDirDegrees,DateUTC
12:53 AM,37.9,34.0,86,30.32,10.0,Calm,Calm,-,N/A,,Clear,0,2012-12-14 06:53:00
1:53 AM,37.0,33.1,86,30.33,10.0,Calm,Calm,-,N/A,,Clear,0,2012-12-14 07:53:00
2:53 AM,36.0,33.1,89,30.32,9.0,Calm,Calm,-,N/A,,Clear,0,2012-12-14 08:53:00
3:53 AM,36.0,33.1,89,30.35,10.0,Calm,Calm,-,N/A,,Clear,0,2012-12-14 09:53:00
4:53 AM,35.1,33.1,92,30.33,10.0,Calm,Calm,-,N/A,,Clear,0,2012-12-14 10:53:00
5:53 AM,39.0,36.0,89,30.33,9.0,ENE,3.5,-,N/A,,Clear,60,2012-12-14 11:53:00
6:53 AM,37.9,35.1,89,30.35,6.0,Calm,Calm,-,N/A,,Clear,0,2012-12-14 12:53:00
7:53 AM,42.1,37.9,85,30.34,7.0,ENE,4.6,-,N/A,,Clear,60,2012-12-14 13:53:00
8:53 AM,45.0,39.0,80,30.35,9.0,ESE,4.6,-,N/A,,Clear,120,2012-12-14 14:53:00
9:53 AM,50.0,39.9,68,30.34,10.0,ESE,6.9,-,N/A,,Clear,110,2012-12-14 15:53:00
10:53 AM,54.0,42.1,64,30.33,10.0,SSE,5.8,-,N/A,,Clear,160,2012-12-14 16:53:00
11:53 AM,55.9,42.1,60,30.29,10.0,SSE,4.6,-,N/A,,Clear,150,2012-12-14 17:53:00
12:53 PM,59.0,42.1,53,30.24,10.0,Variable,5.8,-,N/A,,Clear,0,2012-12-14 18:53:00
1:53 PM,57.9,41.0,53,30.22,10.0,SE,3.5,-,N/A,,Clear,140,2012-12-14 19:53:00
2:53 PM,59.0,41.0,51,30.23,10.0,SSE,3.5,-,N/A,,Clear,150,2012-12-14 20:53:00
3:53 PM,59.0,41.0,51,30.22,10.0,Calm,Calm,-,N/A,,Clear,0,2012-12-14 21:53:00
4:53 PM,54.0,41.0,62,30.22,10.0,Calm,Calm,-,N/A,,Clear,0,2012-12-14 22:53:00
5:53 PM,48.0,42.1,80,30.20,10.0,Calm,Calm,-,N/A,,Clear,0,2012-12-14 23:53:00
6:53 PM,48.0,42.1,80,30.19,10.0,Calm,Calm,-,N/A,,Clear,0,2012-12-15 00:53:00
7:53 PM,53.1,43.0,69,30.19,10.0,ESE,3.5,-,N/A,,Clear,120,2012-12-15 01:53:00
8:53 PM,52.0,43.0,71,30.17,10.0,East,3.5,-,N/A,,Clear,100,2012-12-15 02:53:00
9:53 PM,52.0,42.1,69,30.16,10.0,Calm,Calm,-,N/A,,Clear,0,2012-12-15 03:53:00
10:53 PM,51.1,42.1,71,30.17,10.0,Calm,Calm,-,N/A,,Clear,0,2012-12-15 04:53:00
11:53 PM,50.0,42.1,74,30.16,10.0,Calm,Calm,-,N/A,,Clear,0,2012-12-15 05:53:00